Time;durP1;ratioP1;P1;durP2;ratioP2;P2;SDS_P1;SDS_P2;PMS_P1;PMS_P2;Temp;Humidity;BMP_temperature;BMP_pressure;BME280_temperature;BME280_humidity;BME280_pressure;Samples;Min_cycle;Max_cycle;Signal;HPM_P1;HPM_P2
2021/08/07 00:01:57;;;;;;;4.30;1.88;;;;;;;;;;3598901;39;20453;-72
2021/08/07 00:04:26;;;;;;;2.42;1.30;;;;;;;;;;3598872;39;20388;-71
2021/08/07 00:06:52;;;;;;;4.07;1.50;;;;;;;;;;3596490;39;20710;-72
2021/08/07 00:09:19;;;;;;;3.60;1.60;;;;;;;;;;3603264;39;20425;-73
2021/08/07 00:11:45;;;;;;;3.77;1.77;;;;;;;;;;3599005;39;20369;-72
2021/08/07 00:14:12;;;;;;;5.93;1.80;;;;;;;;;;3605890;39;20764;-76
2021/08/07 00:16:39;;;;;;;2.97;1.70;;;;;;;;;;3598618;39;20377;-72
2021/08/07 00:19:05;;;;;;;2.60;1.63;;;;;;;;;;3598912;39;20759;-73
2021/08/07 00:21:32;;;;;;;2.83;1.77;;;;;;;;;;3598834;39;20742;-72
2021/08/07 00:23:58;;;;;;;4.63;2.20;;;;;;;;;;3598296;39;20607;-72
2021/08/07 00:26:24;;;;;;;2.03;1.40;;;;;;;;;;3591840;39;20413;-72
2021/08/07 00:28:51;;;;;;;2.22;1.25;;;;;;;;;;3597350;39;20424;-72
2021/08/07 00:31:17;;;;;;;1.50;1.20;;;;;;;;;;3598567;39;20392;-72
2021/08/07 00:33:44;;;;;;;2.90;1.42;;;;;;;;;;3598477;39;20530;-73
2021/08/07 00:36:11;;;;;;;6.50;2.22;;;;;;;;;;3596281;39;20402;-73
2021/08/07 00:38:37;;;;;;;2.38;1.25;;;;;;;;;;3592181;39;20483;-74
2021/08/07 00:41:03;;;;;;;4.15;1.73;;;;;;;;;;3598925;39;20364;-73
2021/08/07 00:43:29;;;;;;;3.45;1.60;;;;;;;;;;3602190;39;20371;-72
2021/08/07 00:45:55;;;;;;;2.20;1.20;;;;;;;;;;3599587;39;20874;-71
2021/08/07 00:48:22;;;;;;;6.27;1.70;;;;;;;;;;3598184;39;20373;-71
2021/08/07 00:50:49;;;;;;;5.20;1.60;;;;;;;;;;3598610;40;20646;-72
2021/08/07 00:53:16;;;;;;;4.25;1.38;;;;;;;;;;3598415;39;20750;-72
2021/08/07 00:55:42;;;;;;;2.53;1.33;;;;;;;;;;3598488;39;20367;-72
2021/08/07 00:58:09;;;;;;;3.13;1.42;;;;;;;;;;3597214;39;20841;-72
2021/08/07 01:00:35;;;;;;;2.83;1.20;;;;;;;;;;3598161;39;20728;-72
2021/08/07 01:03:05;;;;;;;3.40;1.38;;;;;;;;;;3596951;39;20466;-71
2021/08/07 01:05:35;;;;;;;3.78;1.70;;;;;;;;;;3597953;39;20450;-71
2021/08/07 01:08:09;;;;;;;3.43;1.47;;;;;;;;;;3602782;39;20382;-73
2021/08/07 01:10:38;;;;;;;5.50;1.60;;;;;;;;;;3604332;39;20650;-72
2021/08/07 01:13:07;;;;;;;4.32;1.70;;;;;;;;;;3603747;39;20661;-73
2021/08/07 01:15:34;;;;;;;3.95;2.50;;;;;;;;;;3598389;39;20421;-73
2021/08/07 01:18:02;;;;;;;6.32;2.40;;;;;;;;;;3597523;39;20399;-73
2021/08/07 01:20:31;;;;;;;3.53;1.90;;;;;;;;;;3600538;39;20450;-73
2021/08/07 01:22:59;;;;;;;4.28;2.22;;;;;;;;;;3593947;39;20365;-74
2021/08/07 01:25:31;;;;;;;4.65;2.30;;;;;;;;;;3598217;39;20750;-73
2021/08/07 01:28:01;;;;;;;7.50;2.42;;;;;;;;;;3597552;39;20434;-73
2021/08/07 01:30:27;;;;;;;2.70;1.50;;;;;;;;;;3591211;39;20770;-72
2021/08/07 01:32:54;;;;;;;2.40;1.70;;;;;;;;;;3598536;39;20636;-73
2021/08/07 01:35:21;;;;;;;2.97;2.00;;;;;;;;;;3591513;39;20374;-73
2021/08/07 01:37:48;;;;;;;4.72;2.40;;;;;;;;;;3599336;39;20402;-72
2021/08/07 01:40:14;;;;;;;2.30;1.65;;;;;;;;;;3597159;40;20509;-73
2021/08/07 01:42:40;;;;;;;3.30;1.40;;;;;;;;;;3599696;39;20469;-73
2021/08/07 01:45:08;;;;;;;7.25;2.35;;;;;;;;;;3601338;39;20476;-73
2021/08/07 01:47:40;;;;;;;4.82;2.17;;;;;;;;;;3600323;39;20856;-73
2021/08/07 01:50:10;;;;;;;3.67;1.88;;;;;;;;;;3601770;39;20355;-79
2021/08/07 01:52:38;;;;;;;2.87;2.00;;;;;;;;;;3599406;39;20408;-73
2021/08/07 01:55:09;;;;;;;3.72;2.47;;;;;;;;;;3597300;40;20393;-73
2021/08/07 01:57:38;;;;;;;4.93;2.45;;;;;;;;;;3594942;39;20790;-72
2021/08/07 02:00:04;;;;;;;3.25;2.00;;;;;;;;;;3605276;39;20447;-71
2021/08/07 02:02:32;;;;;;;6.03;2.22;;;;;;;;;;3601028;39;20391;-71
2021/08/07 02:04:59;;;;;;;3.30;2.17;;;;;;;;;;3597559;39;20742;-71
2021/08/07 02:07:26;;;;;;;3.00;2.38;;;;;;;;;;3596337;39;20392;-71
2021/08/07 02:09:53;;;;;;;5.25;2.30;;;;;;;;;;3597238;39;20645;-72
2021/08/07 02:12:19;;;;;;;4.28;2.00;;;;;;;;;;3599116;39;20549;-72
2021/08/07 02:14:45;;;;;;;4.18;2.53;;;;;;;;;;3602432;39;20389;-72
2021/08/07 02:17:11;;;;;;;2.78;2.05;;;;;;;;;;3601616;39;20353;-71
2021/08/07 02:19:39;;;;;;;2.40;1.90;;;;;;;;;;3600476;39;20446;-72
2021/08/07 02:22:06;;;;;;;3.78;2.35;;;;;;;;;;3597386;40;20521;-72
2021/08/07 02:24:33;;;;;;;4.97;2.10;;;;;;;;;;3595946;40;20542;-71
2021/08/07 02:26:59;;;;;;;5.07;1.90;;;;;;;;;;3596989;39;20353;-71
2021/08/07 02:29:26;;;;;;;3.75;1.73;;;;;;;;;;3597075;39;20372;-70
2021/08/07 02:31:52;;;;;;;3.80;1.60;;;;;;;;;;3593119;40;20370;-72
2021/08/07 02:34:19;;;;;;;3.17;1.52;;;;;;;;;;3601070;39;20363;-71
2021/08/07 02:36:48;;;;;;;2.03;1.10;;;;;;;;;;3599962;39;20365;-72
2021/08/07 02:39:14;;;;;;;6.45;2.10;;;;;;;;;;3597382;39;20759;-71
2021/08/07 02:41:41;;;;;;;4.57;2.08;;;;;;;;;;3597300;39;20353;-72
2021/08/07 02:44:07;;;;;;;4.15;2.10;;;;;;;;;;3592664;39;20706;-73
2021/08/07 02:46:33;;;;;;;4.03;2.25;;;;;;;;;;3604386;39;20363;-72
2021/08/07 02:49:00;;;;;;;2.35;1.90;;;;;;;;;;3603125;39;20400;-73
2021/08/07 02:51:26;;;;;;;3.30;1.88;;;;;;;;;;3599202;39;20404;-73
2021/08/07 02:53:54;;;;;;;4.63;2.22;;;;;;;;;;3599443;39;20465;-74
2021/08/07 02:56:20;;;;;;;3.03;2.28;;;;;;;;;;3602436;39;20380;-73
2021/08/07 02:58:46;;;;;;;3.92;2.08;;;;;;;;;;3606494;39;20414;-74
2021/08/07 03:01:12;;;;;;;3.08;1.70;;;;;;;;;;3606727;39;20400;-72
2021/08/07 03:03:38;;;;;;;3.50;1.77;;;;;;;;;;3599394;39;20365;-73
2021/08/07 03:06:05;;;;;;;2.88;1.90;;;;;;;;;;3601687;39;20634;-73
2021/08/07 03:08:31;;;;;;;4.15;2.10;;;;;;;;;;3600524;39;20384;-74
2021/08/07 03:10:58;;;;;;;4.00;2.10;;;;;;;;;;3606545;39;20649;-73
2021/08/07 03:13:25;;;;;;;5.03;1.75;;;;;;;;;;3599746;39;20383;-75
2021/08/07 03:15:51;;;;;;;4.55;2.20;;;;;;;;;;3596559;40;20492;-73
2021/08/07 03:18:17;;;;;;;3.72;1.73;;;;;;;;;;3598532;39;20380;-73
2021/08/07 03:20:43;;;;;;;2.83;1.88;;;;;;;;;;3597307;39;20404;-73
2021/08/07 03:23:09;;;;;;;4.80;2.72;;;;;;;;;;3599221;39;20377;-73
2021/08/07 03:25:36;;;;;;;4.43;2.40;;;;;;;;;;3599245;39;20385;-74
2021/08/07 03:28:04;;;;;;;5.13;2.10;;;;;;;;;;3602543;39;20365;-73
2021/08/07 03:30:31;;;;;;;5.32;2.22;;;;;;;;;;3597721;40;20727;-73
2021/08/07 03:32:57;;;;;;;3.45;1.80;;;;;;;;;;3599222;39;20638;-73
2021/08/07 03:35:24;;;;;;;5.68;2.00;;;;;;;;;;3595282;39;20823;-73
2021/08/07 03:37:51;;;;;;;5.85;2.95;;;;;;;;;;3596563;39;20375;-72
2021/08/07 03:40:17;;;;;;;4.35;1.98;;;;;;;;;;3601259;39;20408;-73
2021/08/07 03:42:44;;;;;;;5.57;2.17;;;;;;;;;;3598768;39;20403;-74
2021/08/07 03:45:12;;;;;;;3.30;2.33;;;;;;;;;;3602260;39;20438;-73
2021/08/07 03:47:45;;;;;;;3.60;2.00;;;;;;;;;;3598900;39;20522;-73
2021/08/07 03:50:12;;;;;;;4.40;2.03;;;;;;;;;;3598478;39;20777;-74
2021/08/07 03:52:38;;;;;;;3.00;2.00;;;;;;;;;;3598896;39;20373;-73
2021/08/07 03:55:04;;;;;;;3.53;2.17;;;;;;;;;;3599313;40;20369;-73
2021/08/07 03:57:32;;;;;;;3.57;1.80;;;;;;;;;;3599125;39;20408;-73
2021/08/07 03:59:58;;;;;;;5.68;2.20;;;;;;;;;;3599474;39;20754;-73
2021/08/07 04:02:26;;;;;;;4.95;2.28;;;;;;;;;;3599160;39;20631;-73
2021/08/07 04:04:52;;;;;;;2.10;1.70;;;;;;;;;;3605380;39;20370;-74
2021/08/07 04:07:18;;;;;;;2.50;1.58;;;;;;;;;;3594394;39;20404;-73
2021/08/07 04:09:44;;;;;;;4.10;2.00;;;;;;;;;;3599136;39;20662;-73
2021/08/07 04:12:10;;;;;;;3.88;2.20;;;;;;;;;;3597852;39;20772;-73
2021/08/07 04:14:38;;;;;;;5.90;2.65;;;;;;;;;;3595091;39;20370;-73
2021/08/07 04:17:05;;;;;;;6.57;2.38;;;;;;;;;;3602476;39;20740;-71
2021/08/07 04:19:32;;;;;;;5.13;2.95;;;;;;;;;;3591753;39;20748;-72
2021/08/07 04:21:58;;;;;;;4.00;2.70;;;;;;;;;;3597913;39;20441;-72
2021/08/07 04:24:24;;;;;;;5.13;2.78;;;;;;;;;;3591658;39;20434;-72
2021/08/07 04:26:51;;;;;;;8.20;3.35;;;;;;;;;;3596900;39;20426;-72
2021/08/07 04:29:17;;;;;;;7.10;2.28;;;;;;;;;;3598246;39;20542;-72
2021/08/07 04:31:43;;;;;;;3.50;2.40;;;;;;;;;;3598539;39;20750;-73
2021/08/07 04:34:09;;;;;;;4.00;2.33;;;;;;;;;;3597697;39;20369;-72
2021/08/07 04:36:37;;;;;;;5.05;2.50;;;;;;;;;;3601940;39;20403;-72
2021/08/07 04:39:03;;;;;;;6.25;2.28;;;;;;;;;;3601513;39;20367;-72
2021/08/07 04:41:29;;;;;;;3.88;1.88;;;;;;;;;;3601224;39;20498;-72
2021/08/07 04:43:55;;;;;;;3.60;2.10;;;;;;;;;;3600322;39;20355;-73
2021/08/07 04:46:22;;;;;;;5.80;2.15;;;;;;;;;;3600010;39;20353;-72
2021/08/07 04:48:48;;;;;;;5.18;2.60;;;;;;;;;;3591016;39;20406;-73
2021/08/07 04:51:14;;;;;;;3.00;2.40;;;;;;;;;;3604905;39;20422;-73
2021/08/07 04:53:41;;;;;;;2.70;2.00;;;;;;;;;;3601503;39;20377;-73
2021/08/07 04:56:08;;;;;;;8.15;2.40;;;;;;;;;;3605625;39;20496;-77
2021/08/07 04:58:34;;;;;;;4.55;1.83;;;;;;;;;;3598750;39;20369;-73
2021/08/07 05:01:00;;;;;;;5.43;2.50;;;;;;;;;;3595180;39;20453;-72
2021/08/07 05:03:26;;;;;;;6.13;2.35;;;;;;;;;;3597404;39;20403;-73
2021/08/07 05:05:53;;;;;;;5.13;2.47;;;;;;;;;;3601501;39;20765;-72
2021/08/07 05:08:19;;;;;;;4.22;2.00;;;;;;;;;;3602687;39;20379;-72
2021/08/07 05:10:46;;;;;;;5.27;2.40;;;;;;;;;;3589982;40;20469;-74
2021/08/07 05:13:12;;;;;;;4.32;2.10;;;;;;;;;;3598717;39;20384;-73
2021/08/07 05:15:39;;;;;;;5.88;2.10;;;;;;;;;;3597419;39;20400;-72
2021/08/07 05:18:05;;;;;;;4.68;1.80;;;;;;;;;;3598330;39;20365;-74
2021/08/07 05:20:31;;;;;;;4.95;2.70;;;;;;;;;;3602122;39;20387;-73
2021/08/07 05:22:57;;;;;;;7.03;2.53;;;;;;;;;;3595223;39;20413;-74
2021/08/07 05:25:24;;;;;;;7.30;2.67;;;;;;;;;;3598633;39;20357;-74
2021/08/07 05:27:51;;;;;;;4.95;2.35;;;;;;;;;;3601742;39;20380;-74
2021/08/07 05:30:17;;;;;;;8.15;2.58;;;;;;;;;;3597618;39;20478;-73
2021/08/07 05:32:43;;;;;;;5.75;2.60;;;;;;;;;;3603310;39;20448;-79
2021/08/07 05:35:10;;;;;;;5.50;2.07;;;;;;;;;;3603868;39;20391;-75
2021/08/07 05:37:40;;;;;;;3.35;1.60;;;;;;;;;;3591589;40;20409;-74
2021/08/07 05:40:06;;;;;;;8.45;3.33;;;;;;;;;;3596761;40;20420;-74
2021/08/07 05:42:33;;;;;;;8.52;3.10;;;;;;;;;;3598159;39;20369;-73
2021/08/07 05:45:00;;;;;;;11.27;3.35;;;;;;;;;;3601746;39;20353;-73
2021/08/07 05:47:26;;;;;;;7.68;3.10;;;;;;;;;;3600847;39;20375;-73
2021/08/07 05:49:53;;;;;;;6.80;2.95;;;;;;;;;;3601650;39;20379;-73
2021/08/07 05:52:20;;;;;;;6.93;2.97;;;;;;;;;;3598942;39;20677;-76
2021/08/07 05:54:46;;;;;;;4.70;2.42;;;;;;;;;;3602770;39;20771;-75
2021/08/07 05:57:12;;;;;;;6.15;2.33;;;;;;;;;;3601368;39;20494;-73
2021/08/07 05:59:38;;;;;;;4.70;2.50;;;;;;;;;;3601879;39;20789;-73
2021/08/07 06:02:06;;;;;;;6.13;2.63;;;;;;;;;;3598271;39;20746;-73
2021/08/07 06:04:32;;;;;;;6.47;2.60;;;;;;;;;;3598145;39;20364;-74
2021/08/07 06:06:58;;;;;;;4.60;2.70;;;;;;;;;;3603849;39;20391;-74
2021/08/07 06:09:25;;;;;;;5.97;2.20;;;22.50;99.90;;;;;;3598419;39;20385;-75
2021/08/07 06:11:51;;;;;;;5.55;2.42;;;21.30;99.90;;;;;;3592042;39;20373;-74
2021/08/07 06:14:17;;;;;;;5.70;2.38;;;;;;;;;;3605180;39;20356;-74
2021/08/07 06:16:43;;;;;;;7.80;2.50;;;;;;;;;;3597009;39;20770;-76
2021/08/07 06:19:11;;;;;;;6.47;2.17;;;;;;;;;;3600182;40;20383;-73
2021/08/07 06:21:37;;;;;;;7.03;2.42;;;;;;;;;;3602437;39;20771;-73
2021/08/07 06:24:04;;;;;;;5.57;2.40;;;;;;;;;;3602039;39;20720;-73
2021/08/07 06:26:30;;;;;;;5.45;2.30;;;;;;;;;;3597959;39;20385;-73
2021/08/07 06:28:56;;;;;;;4.83;2.17;;;;;;;;;;3605374;39;20385;-74
2021/08/07 06:31:22;;;;;;;5.97;1.90;;;;;;;;;;3597984;39;20369;-74
2021/08/07 06:33:49;;;;;;;6.25;2.63;;;;;;;;;;3597988;39;20742;-73
2021/08/07 06:36:17;;;;;;;4.88;2.45;;;;;;;;;;3586413;40;20468;-74
2021/08/07 06:38:44;;;;;;;4.17;1.97;;;;;;;;;;3593464;40;20441;-73
2021/08/07 06:41:10;;;;;;;5.70;2.25;;;;;;;;;;3577579;40;20473;-74
2021/08/07 06:43:37;;;;;;;6.22;2.28;;;;;;;;;;3586414;40;20366;-73
2021/08/07 06:46:03;;;;;;;5.75;2.20;;;;;;;;;;3586536;40;20383;-72
2021/08/07 06:48:29;;;;;;;5.68;2.38;;;21.10;99.90;;;;;;3590655;40;20841;-73
2021/08/07 06:50:55;;;;;;;8.77;2.72;;;22.20;99.90;;;;;;3586121;40;20443;-73
2021/08/07 06:53:23;;;;;;;7.07;2.50;;;;;;;;;;3593675;40;20388;-73
2021/08/07 06:55:49;;;;;;;8.40;2.75;;;;;;;;;;3595555;40;20392;-73
2021/08/07 06:58:15;;;;;;;5.97;2.00;;;;;;;;;;3591926;40;20434;-74
2021/08/07 07:00:42;;;;;;;6.68;2.03;;;;;;;;;;3583109;40;20386;-73
2021/08/07 07:03:08;;;;;;;7.18;1.80;;;;;;;;;;3586503;40;20386;-73
2021/08/07 07:05:36;;;;;;;7.75;2.45;;;;;;;;;;3577970;40;20496;-73
2021/08/07 07:08:02;;;;;;;4.82;2.20;;;;;;;;;;3595767;39;20486;-73
2021/08/07 07:10:30;;;;;;;5.20;2.33;;;;;;;;;;3597648;39;20768;-73
2021/08/07 07:12:57;;;;;;;6.22;2.13;;;;;;;;;;3597789;40;20396;-73
2021/08/07 07:15:23;;;;;;;8.20;2.70;;;;;;;;;;3604154;39;20878;-71
2021/08/07 07:17:49;;;;;;;10.20;2.70;;;;;;;;;;3597829;39;20742;-73
2021/08/07 07:20:16;;;;;;;7.32;2.30;;;;;;;;;;3592749;39;20440;-74
2021/08/07 07:22:42;;;;;;;4.90;1.90;;;;;;;;;;3597970;40;20365;-73
2021/08/07 07:25:11;;;;;;;8.07;3.47;;;;;;;;;;3597869;39;20469;-73
2021/08/07 07:27:38;;;;;;;6.07;2.20;;;;;;;;;;3601606;39;20369;-72
2021/08/07 07:30:06;;;;;;;5.07;2.33;;;22.20;99.90;;;;;;3597701;39;20428;-73
2021/08/07 07:32:32;;;;;;;7.03;2.47;;;23.60;99.90;;;;;;3584188;39;20501;-73
2021/08/07 07:34:58;;;;;;;6.20;2.03;;;23.60;99.90;;;;;;3597794;40;20428;-73
2021/08/07 07:37:25;;;;;;;4.87;1.90;;;23.60;99.90;;;;;;3590968;39;20393;-73
2021/08/07 07:39:51;;;;;;;4.72;2.00;;;23.60;99.90;;;;;;3595322;39;20407;-72
2021/08/07 07:42:17;;;;;;;5.68;2.40;;;23.70;99.90;;;;;;3595019;39;20364;-73
2021/08/07 07:44:45;;;;;;;4.70;1.73;;;23.60;99.90;;;;;;3581069;40;20388;-73
2021/08/07 07:47:11;;;;;;;6.22;2.08;;;23.60;99.90;;;;;;3596358;39;20759;-74
2021/08/07 07:49:37;;;;;;;6.03;2.08;;;23.80;99.90;;;;;;3600959;39;20511;-74
2021/08/07 07:52:03;;;;;;;4.80;2.17;;;23.80;99.90;;;;;;3597066;39;20397;-73
2021/08/07 07:54:29;;;;;;;5.90;1.70;;;23.80;99.90;;;;;;3600959;39;20403;-74
2021/08/07 07:56:55;;;;;;;16.37;11.27;;;23.90;99.90;;;;;;3586456;40;20392;-74
2021/08/07 07:59:21;;;;;;;15.57;10.68;;;24.00;99.90;;;;;;3582626;40;20761;-73
2021/08/07 08:01:49;;;;;;;11.20;4.87;;;23.80;99.90;;;;;;3599276;39;20393;-77
2021/08/07 08:04:15;;;;;;;11.18;5.72;;;23.70;99.90;;;;;;3597913;40;20442;-73
2021/08/07 08:06:41;;;;;;;7.75;3.08;;;23.70;99.90;;;;;;3592846;40;20377;-73
2021/08/07 08:09:07;;;;;;;4.67;2.10;;;23.70;99.90;;;;;;3594369;40;20710;-72
2021/08/07 08:11:33;;;;;;;5.80;3.00;;;23.70;99.90;;;;;;3584945;40;20409;-74
2021/08/07 08:14:00;;;;;;;4.75;2.40;;;23.60;99.90;;;;;;3591240;40;20412;-72
2021/08/07 08:16:26;;;;;;;5.35;2.55;;;23.50;99.90;;;;;;3598968;40;20361;-73
2021/08/07 08:18:53;;;;;;;7.03;2.17;;;23.40;99.90;;;;;;3589467;40;20450;-72
2021/08/07 08:21:20;;;;;;;9.27;2.70;;;;;;;;;;3599111;40;20377;-73
2021/08/07 08:23:46;;;;;;;6.72;2.38;;;;;;;;;;3585498;40;20470;-73
2021/08/07 08:26:12;;;;;;;4.88;2.00;;;;;;;;;;3598878;39;20369;-73
2021/08/07 08:28:39;;;;;;;6.38;2.20;;;;;;;;;;3598553;39;20393;-73
2021/08/07 08:31:06;;;;;;;5.10;2.00;;;;;;;;;;3589389;40;20392;-72
2021/08/07 08:33:33;;;;;;;8.68;2.17;;;;;;;;;;3589047;40;20407;-73
2021/08/07 08:36:01;;;;;;;7.23;2.30;;;;;;;;;;3598795;40;20373;-73
2021/08/07 08:38:27;;;;;;;7.93;2.20;;;;;;;;;;3598608;40;20369;-73
2021/08/07 08:40:55;;;;;;;8.97;2.40;;;;;;;;;;3592797;39;20442;-72
2021/08/07 08:43:22;;;;;;;6.95;1.98;;;;;;;;;;3584864;40;20447;-72
2021/08/07 08:45:48;;;;;;;8.67;2.90;;;;;;;;;;3585474;40;20362;-76
2021/08/07 08:48:15;;;;;;;7.37;2.10;;;;;;;;;;3588299;40;20358;-73
2021/08/07 08:50:41;;;;;;;8.68;2.53;;;;;;;;;;3589811;40;20412;-72
2021/08/07 08:53:08;;;;;;;5.93;2.22;;;;;;;;;;3582021;39;20719;-73
2021/08/07 08:55:35;;;;;;;7.97;2.22;;;;;;;;;;3590733;40;20406;-73
2021/08/07 08:58:01;;;;;;;8.35;2.47;;;;;;;;;;3578850;40;20771;-72
2021/08/07 09:00:27;;;;;;;7.18;1.80;;;;;;;;;;3585318;40;20366;-73
2021/08/07 09:02:54;;;;;;;6.13;2.10;;;;;;;;;;3575817;40;20402;-73
2021/08/07 09:05:20;;;;;;;8.40;2.47;;;;;;;;;;3588340;40;20371;-73
2021/08/07 09:07:47;;;;;;;8.48;2.50;;;;;;;;;;3577344;40;20455;-73
2021/08/07 09:10:15;;;;;;;6.85;2.10;;;;;;;;;;3585250;40;20379;-72
2021/08/07 09:12:45;;;;;;;4.53;2.17;;;;;;;;;;3583192;40;20748;-72
2021/08/07 09:15:25;;;;;;;5.65;2.10;;;;;;;;;;3583966;40;20757;-72
2021/08/07 09:17:51;;;;;;;6.93;2.20;;;;;;;;;;3584773;40;20449;-73
2021/08/07 09:20:26;;;;;;;6.57;2.23;;;;;;;;;;3585437;40;20366;-73
2021/08/07 09:22:52;;;;;;;5.55;2.10;;;;;;;;;;3588291;40;20410;-72
2021/08/07 09:25:26;;;;;;;7.70;2.40;;;;;;;;;;3578946;40;20390;-73
2021/08/07 09:27:53;;;;;;;8.38;2.05;;;;;;;;;;3588209;40;20766;-72
2021/08/07 09:30:30;;;;;;;8.57;2.10;;;;;;;;;;3588149;40;20759;-73
2021/08/07 09:32:57;;;;;;;6.07;2.10;;;;;;;;;;3588349;40;20363;-74
2021/08/07 09:35:24;;;;;;;7.05;2.40;;;;;;;;;;3578865;40;20783;-72
2021/08/07 09:38:08;;;;;;;7.07;2.00;;;;;;;;;;3588028;40;20375;-72
2021/08/07 09:40:43;;;;;;;8.25;2.28;;;;;;;;;;3584390;39;20461;-72
2021/08/07 09:43:09;;;;;;;9.73;2.97;;;;;;;;;;3598275;40;20478;-72
2021/08/07 09:45:36;;;;;;;6.07;2.33;;;;;;;;;;3594220;39;20360;-73
2021/08/07 09:48:03;;;;;;;8.85;1.95;;;;;;;;;;3598476;39;20364;-72
2021/08/07 09:50:30;;;;;;;6.03;2.05;;;;;;;;;;3598575;39;20665;-72
2021/08/07 09:52:57;;;;;;;5.07;2.17;;;;;;;;;;3604282;39;20380;-73
2021/08/07 09:55:24;;;;;;;7.43;2.33;;;;;;;;;;3601538;39;20353;-72
2021/08/07 09:58:02;;;;;;;7.63;2.03;;;;;;;;;;3595418;39;20837;-72
2021/08/07 10:00:46;;;;;;;8.95;2.10;;;;;;;;;;3590644;39;20404;-72
2021/08/07 10:03:13;;;;;;;6.05;2.33;;;;;;;;;;3596918;39;20384;-73
2021/08/07 10:05:39;;;;;;;6.45;2.35;;;;;;;;;;3607817;39;20733;-72
2021/08/07 10:08:07;;;;;;;5.25;2.22;;;;;;;;;;3598102;40;20765;-73
2021/08/07 10:10:34;;;;;;;8.73;2.83;;;;;;;;;;3600276;39;20458;-73
2021/08/07 10:13:02;;;;;;;6.20;2.20;;;;;;;;;;3590867;40;20400;-72
2021/08/07 10:15:28;;;;;;;7.22;2.78;;;;;;;;;;3596050;39;20570;-72
2021/08/07 10:17:55;;;;;;;7.82;2.97;;;;;;;;;;3593456;40;20361;-72
2021/08/07 10:20:22;;;;;;;8.57;2.42;;;;;;;;;;3591953;40;20381;-73
2021/08/07 10:22:49;;;;;;;7.10;2.43;;;;;;;;;;3584605;40;20391;-71
2021/08/07 10:25:16;;;;;;;6.90;2.80;;;;;;;;;;3593068;40;20390;-73
2021/08/07 10:27:43;;;;;;;8.85;2.67;;;;;;;;;;3590077;40;20744;-72
2021/08/07 10:30:12;;;;;;;10.13;2.92;;;;;;;;;;3586081;40;20480;-72
2021/08/07 10:32:39;;;;;;;5.15;2.40;;;;;;;;;;3591293;40;20379;-72
2021/08/07 10:35:08;;;;;;;6.95;2.25;;;;;;;;;;3592590;39;20512;-73
2021/08/07 10:37:34;;;;;;;6.10;2.30;;;;;;;;;;3589830;39;20388;-72
2021/08/07 10:40:00;;;;;;;6.35;2.25;;;;;;;;;;3599833;39;20416;-72
2021/08/07 10:42:27;;;;;;;5.93;2.30;;;;;;;;;;3600077;39;20377;-72
2021/08/07 10:44:54;;;;;;;9.07;2.80;;;;;;;;;;3601332;39;20362;-72
2021/08/07 10:47:38;;;;;;;6.80;2.65;;;;;;;;;;3599509;39;20369;-72
2021/08/07 10:50:22;;;;;;;6.80;1.98;;;;;;;;;;3588244;40;20456;-72
2021/08/07 10:52:48;;;;;;;11.18;2.17;;;23.20;99.90;;;;;;3595043;39;20360;-73
2021/08/07 10:55:47;;;;;;;5.05;2.13;;;24.30;99.90;;;;;;3600570;39;20737;-72
2021/08/07 10:58:32;;;;;;;6.75;2.28;;;24.60;99.90;;;;;;3595328;39;20480;-73
2021/08/07 11:01:13;;;;;;;4.10;1.45;;;;;;;;;;3595814;39;20394;-72
2021/08/07 11:03:41;;;;;;;5.87;1.70;;;;;;;;;;3597612;39;20762;-72
2021/08/07 11:06:07;;;;;;;6.47;2.10;;;;;;;;;;3600724;39;20610;-73
2021/08/07 11:08:33;;;;;;;6.18;1.95;;;;;;;;;;3599579;39;20825;-72
2021/08/07 11:11:00;;;;;;;8.43;2.10;;;;;;;;;;3596872;39;20845;-72
2021/08/07 11:13:27;;;;;;;6.90;1.98;;;;;;;;;;3597091;40;20637;-73
2021/08/07 11:16:17;;;;;;;5.82;2.10;;;;;;;;;;3590281;39;20405;-74
2021/08/07 11:18:45;;;;;;;6.65;1.75;;;;;;;;;;3602742;39;20373;-72
2021/08/07 11:21:39;;;;;;;8.50;2.20;;;;;;;;;;3594761;39;20469;-73
2021/08/07 11:24:05;;;;;;;6.32;2.00;;;;;;;;;;3600825;39;20655;-72
2021/08/07 11:26:46;;;;;;;5.63;1.90;;;;;;;;;;3604481;39;20757;-73
2021/08/07 11:29:13;;;;;;;7.20;2.03;;;;;;;;;;3593442;39;20418;-72
2021/08/07 11:31:39;;;;;;;6.72;2.33;;;;;;;;;;3598118;39;20381;-72
2021/08/07 11:34:28;;;;;;;5.13;2.05;;;;;;;;;;3598279;39;20610;-73
2021/08/07 11:37:19;;;;;;;4.22;1.60;;;25.20;99.90;;;;;;3596683;39;20453;-72
2021/08/07 11:40:09;;;;;;;5.45;2.63;;;24.10;99.90;;;;;;3591608;39;20396;-73
2021/08/07 11:42:38;;;;;;;6.20;2.13;;;23.90;99.90;;;;;;3594220;40;20818;-72
2021/08/07 11:45:05;;;;;;;5.25;1.67;;;23.70;99.90;;;;;;3580322;40;20395;-73
2021/08/07 11:47:32;;;;;;;5.87;2.00;;;23.70;99.90;;;;;;3586152;40;20406;-74
2021/08/07 11:50:05;;;;;;;6.47;2.20;;;23.60;99.90;;;;;;3586883;40;20394;-73
2021/08/07 11:52:31;;;;;;;5.32;2.10;;;23.50;99.90;;;;;;3588877;40;20649;-72
2021/08/07 11:54:58;;;;;;;6.53;2.15;;;23.60;99.90;;;;;;3591222;40;20775;-73
2021/08/07 11:57:24;;;;;;;6.15;2.30;;;23.60;99.90;;;;;;3590247;40;20378;-73
2021/08/07 11:59:50;;;;;;;6.55;2.05;;;23.60;99.90;;;;;;3587319;40;20382;-72
2021/08/07 12:02:16;;;;;;;7.50;2.70;;;23.50;99.90;;;;;;3591237;40;20800;-73
2021/08/07 12:04:42;;;;;;;6.03;2.63;;;23.40;99.90;;;;;;3583966;40;20391;-73
2021/08/07 12:07:11;;;;;;;5.72;2.38;;;23.40;99.90;;;;;;3587210;40;20374;-73
2021/08/07 12:09:37;;;;;;;6.72;2.20;;;23.40;99.90;;;;;;3581840;40;20909;-73
2021/08/07 12:12:04;;;;;;;4.90;2.38;;;23.50;99.90;;;;;;3587428;40;20444;-73
2021/08/07 12:14:30;;;;;;;6.03;2.65;;;23.40;99.90;;;;;;3597728;39;20688;-74
2021/08/07 12:17:04;;;;;;;5.32;2.70;;;;;;;;;;3598268;40;20441;-74
2021/08/07 12:19:30;;;;;;;5.38;2.55;;;;;;;;;;3599165;39;20829;-73
2021/08/07 12:22:04;;;;;;;4.60;2.28;;;23.40;99.90;;;;;;3598564;39;20416;-73
2021/08/07 12:24:31;;;;;;;5.68;2.42;;;;;;;;;;3597297;39;20405;-73
2021/08/07 12:26:58;;;;;;;4.18;2.20;;;;;;;;;;3598867;39;20678;-73
2021/08/07 12:29:25;;;;;;;4.53;2.15;;;;;;;;;;3598388;39;20794;-73
2021/08/07 12:31:53;;;;;;;6.65;2.00;;;;;;;;;;3595789;39;20371;-74
2021/08/07 12:34:20;;;;;;;5.95;2.25;;;;;;;;;;3604152;39;20376;-73
2021/08/07 12:36:57;;;;;;;7.78;2.67;;;;;;;;;;3596246;39;20365;-74
2021/08/07 12:39:23;;;;;;;4.43;2.20;;;;;;;;;;3604959;39;20433;-73
2021/08/07 12:41:51;;;;;;;6.30;2.38;;;;;;;;;;3603086;39;20411;-75
2021/08/07 12:44:22;;;;;;;2.92;1.80;;;23.10;99.90;;;;;;3593000;40;20773;-78
2021/08/07 12:46:50;;;;;;;5.32;2.30;;;23.60;99.90;;;;;;3595491;40;20372;-74
2021/08/07 12:49:32;;;;;;;8.87;3.20;;;23.60;99.90;;;;;;3595009;39;20385;-80
2021/08/07 12:52:02;;;;;;;7.85;3.08;;;23.30;99.90;;;;;;3595893;40;20369;-74
2021/08/07 12:54:28;;;;;;;6.18;2.95;;;;;;;;;;3584492;40;20402;-74
2021/08/07 12:56:56;;;;;;;10.80;3.17;;;;;;;;;;3592182;40;20683;-77
2021/08/07 12:59:23;;;;;;;9.55;2.88;;;;;;;;;;3600184;39;20408;-76
2021/08/07 13:02:00;;;;;;;6.90;2.63;;;23.10;99.90;;;;;;3599205;39;20385;-75
2021/08/07 13:04:40;;;;;;;6.43;2.90;;;22.80;99.90;;;;;;3599148;40;20368;-75
2021/08/07 13:07:06;;;;;;;9.50;3.13;;;;;;;;;;3602461;39;20394;-74
2021/08/07 13:09:33;;;;;;;9.75;4.53;;;;;;;;;;3600234;39;20388;-77
2021/08/07 13:12:11;;;;;;;9.52;3.90;;;;;;;;;;3606222;39;20367;-74
2021/08/07 13:14:39;;;;;;;11.13;5.00;;;;;;;;;;3603330;39;20363;-74
2021/08/07 13:17:05;;;;;;;10.88;4.22;;;;;;;;;;3602461;39;20360;-74
2021/08/07 13:19:37;;;;;;;6.82;3.60;;;;;;;;;;3606076;39;20489;-75
2021/08/07 13:22:11;;;;;;;6.35;3.47;;;;;;;;;;3598434;40;20385;-77
2021/08/07 13:24:38;;;;;;;8.02;3.47;;;;;;;;;;3587900;40;20402;-75
2021/08/07 13:27:05;;;;;;;13.40;5.43;;;;;;;;;;3588210;40;20398;-75
2021/08/07 13:29:33;;;;;;;14.40;5.60;;;;;;;;;;3589348;40;20370;-76
2021/08/07 13:32:00;;;;;;;11.05;5.32;;;;;;;;;;3597333;39;20373;-75
2021/08/07 13:34:26;;;;;;;8.20;4.25;;;;;;;;;;3599350;40;20737;-81
2021/08/07 13:36:53;;;;;;;4.97;3.70;;;;;;;;;;3599145;40;20504;-75
2021/08/07 13:39:20;;;;;;;8.63;5.55;;;;;;;;;;3599451;40;20384;-75
2021/08/07 13:41:46;;;;;;;6.68;4.80;;;;;;;;;;3599253;39;20773;-79
2021/08/07 13:44:12;;;;;;;8.77;4.57;;;;;;;;;;3606207;39;20368;-76
2021/08/07 13:46:40;;;;;;;6.65;4.00;;;;;;;;;;3598950;40;20427;-75
2021/08/07 13:49:07;;;;;;;8.97;5.27;;;;;;;;;;3599391;40;20835;-74
2021/08/07 13:51:33;;;;;;;7.28;5.10;;;;;;;;;;3597660;40;20409;-76
2021/08/07 13:53:59;;;;;;;9.68;5.28;;;;;;;;;;3607384;39;20445;-75
2021/08/07 13:56:28;;;;;;;7.38;4.47;;;;;;;;;;3607864;39;20348;-75
2021/08/07 13:58:55;;;;;;;9.82;4.68;;;;;;;;;;3598441;39;20641;-75
2021/08/07 14:01:21;;;;;;;9.45;5.85;;;;;;;;;;3598270;40;20392;-73
2021/08/07 14:03:51;;;;;;;5.13;3.80;;;;;;;;;;3604685;39;20371;-75
2021/08/07 14:06:19;;;;;;;8.07;4.67;;;;;;;;;;3583877;40;20458;-73
2021/08/07 14:08:45;;;;;;;6.85;4.22;;;;;;;;;;3583911;40;20743;-76
2021/08/07 14:11:11;;;;;;;6.72;4.30;;;;;;;;;;3580283;40;20374;-75
2021/08/07 14:13:37;;;;;;;7.32;5.25;;;;;;;;;;3571725;40;20383;-73
2021/08/07 14:16:04;;;;;;;7.87;4.53;;;;;;;;;;3571525;40;20485;-74
2021/08/07 14:18:30;;;;;;;9.05;4.32;;;;;;;;;;3586871;40;20813;-77
2021/08/07 14:20:57;;;;;;;7.88;4.70;;;;;;;;;;3591097;40;20419;-75
2021/08/07 14:23:24;;;;;;;8.45;5.25;;;;;;;;;;3589203;40;20386;-76
2021/08/07 14:25:50;;;;;;;6.70;4.38;;;;;;;;;;3584826;40;20456;-74
2021/08/07 14:28:16;;;;;;;4.63;3.53;;;;;;;;;;3587209;40;20460;-76